createdAt,value
2022-12-18T00:01:24.870Z,102722.00
2022-12-18T00:03:52.839Z,102727.25
2022-12-18T00:06:19.936Z,102730.69
2022-12-18T00:08:46.622Z,102727.19
2022-12-18T00:11:15.537Z,102724.38
2022-12-18T00:13:42.848Z,102721.66
2022-12-18T00:16:20.900Z,102722.50
2022-12-18T00:18:48.831Z,102727.91
2022-12-18T00:21:15.600Z,102726.19
2022-12-18T00:23:43.722Z,102732.50
2022-12-18T00:26:19.130Z,102720.69
2022-12-18T00:28:46.739Z,102715.28
2022-12-18T00:31:17.056Z,102719.81
2022-12-18T00:33:43.886Z,102733.03
2022-12-18T00:36:21.637Z,102732.31
2022-12-18T00:38:48.747Z,102733.09
2022-12-18T00:41:39.732Z,102732.19
2022-12-18T00:44:08.451Z,102728.56
2022-12-18T00:46:35.146Z,102727.69
2022-12-18T00:49:01.939Z,102733.75
2022-12-18T00:51:28.524Z,102732.78
2022-12-18T00:53:55.076Z,102744.63
2022-12-18T00:56:23.317Z,102734.84
2022-12-18T00:58:50.067Z,102743.53
2022-12-18T01:01:17.706Z,102745.31
2022-12-18T01:03:46.123Z,102736.38
2022-12-18T01:06:13.681Z,102735.38
2022-12-18T01:08:40.378Z,102738.03
2022-12-18T01:11:14.756Z,102733.66
2022-12-18T01:13:41.787Z,102742.41
2022-12-18T01:16:09.920Z,102751.25
2022-12-18T01:18:36.893Z,102753.84
2022-12-18T01:21:10.755Z,102763.81
2022-12-18T01:23:37.776Z,102761.09
2022-12-18T01:26:12.888Z,102769.97
2022-12-18T01:28:39.714Z,102767.25
2022-12-18T01:31:19.529Z,102767.25
2022-12-18T01:33:46.403Z,102766.16
2022-12-18T01:36:33.011Z,102772.53
2022-12-18T01:39:07.863Z,102776.09
2022-12-18T01:41:53.937Z,102778.75
2022-12-18T01:44:48.496Z,102782.34
2022-12-18T01:47:29.744Z,102786.63
2022-12-18T01:49:57.328Z,102791.03
2022-12-18T01:52:26.146Z,102782.19
2022-12-18T01:54:52.854Z,102789.22
2022-12-18T01:57:19.844Z,102781.22
2022-12-18T01:59:49.223Z,102778.56
2022-12-18T02:02:17.147Z,102777.59
2022-12-18T02:04:49.188Z,102789.19
2022-12-18T02:07:39.328Z,102790.13
2022-12-18T02:10:32.837Z,102782.88
2022-12-18T02:13:22.755Z,102778.47
2022-12-18T02:15:55.246Z,102784.47
2022-12-18T02:18:36.947Z,102773.88
2022-12-18T02:21:28.361Z,102779.34
2022-12-18T02:24:00.767Z,102769.28
2022-12-18T02:26:36.398Z,102767.56
2022-12-18T02:29:19.139Z,102757.00
2022-12-18T02:31:53.873Z,102757.81
2022-12-18T02:34:23.423Z,102750.53
2022-12-18T02:36:50.874Z,102756.72
2022-12-18T02:39:18.242Z,102749.69
2022-12-18T02:41:44.767Z,102749.56
2022-12-18T02:44:13.418Z,102733.50
2022-12-18T02:47:06.336Z,102750.44
2022-12-18T02:49:41.699Z,102745.00
2022-12-18T02:52:37.187Z,102749.41
2022-12-18T02:55:18.872Z,102745.88
2022-12-18T02:58:07.800Z,102749.41
2022-12-18T03:00:42.666Z,102762.56
2022-12-18T03:03:15.851Z,102754.75
2022-12-18T03:05:51.635Z,102774.25
2022-12-18T03:08:28.554Z,102765.34
2022-12-18T03:10:57.026Z,102767.94
2022-12-18T03:13:37.432Z,102771.50
2022-12-18T03:16:07.215Z,102766.16
2022-12-18T03:18:56.267Z,102763.53
2022-12-18T03:21:29.731Z,102755.38
2022-12-18T03:23:56.937Z,102764.00
2022-12-18T03:26:25.786Z,102764.38
2022-12-18T03:29:05.917Z,102763.28
2022-12-18T03:31:33.851Z,102766.75
2022-12-18T03:34:03.248Z,102768.69
2022-12-18T03:36:31.157Z,102766.69
2022-12-18T03:38:59.067Z,102761.38
2022-12-18T03:41:29.762Z,102774.69
2022-12-18T03:44:20.213Z,102770.38
2022-12-18T03:46:46.674Z,102771.19
2022-12-18T03:49:18.726Z,102766.69
2022-12-18T03:51:59.677Z,102763.06
2022-12-18T03:54:26.974Z,102753.44
2022-12-18T03:57:00.198Z,102759.63
2022-12-18T03:59:27.842Z,102757.06
2022-12-18T04:01:55.835Z,102764.84
2022-12-18T04:04:22.891Z,102755.22
2022-12-18T04:06:50.664Z,102756.75
2022-12-18T04:09:17.310Z,102767.63
2022-12-18T04:11:46.912Z,102768.31
2022-12-18T04:14:17.594Z,102763.06
2022-12-18T04:16:44.650Z,102766.41
2022-12-18T04:19:11.213Z,102764.88
2022-12-18T04:21:38.125Z,102764.69
2022-12-18T04:24:04.897Z,102766.41
2022-12-18T04:26:31.414Z,102762.88
2022-12-18T04:28:57.951Z,102764.69
2022-12-18T04:31:24.484Z,102761.19
2022-12-18T04:33:51.024Z,102756.88
2022-12-18T04:36:17.576Z,102765.66
2022-12-18T04:38:44.135Z,102756.56
2022-12-18T04:41:10.658Z,102765.53
2022-12-18T04:43:37.462Z,102762.78
2022-12-18T04:46:08.565Z,102764.69
2022-12-18T04:48:36.018Z,102768.22
2022-12-18T04:51:02.597Z,102763.66
2022-12-18T04:53:29.159Z,102758.81
2022-12-18T04:56:12.449Z,102763.25
2022-12-18T04:58:40.120Z,102769.47
2022-12-18T05:01:07.125Z,102757.88
2022-12-18T05:03:33.751Z,102761.41
2022-12-18T05:06:00.425Z,102762.59
2022-12-18T05:08:27.251Z,102774.34
2022-12-18T05:11:04.385Z,102771.56
2022-12-18T05:13:32.564Z,102768.91
2022-12-18T05:15:59.118Z,102767.66
2022-12-18T05:18:26.003Z,102771.19
2022-12-18T05:20:53.866Z,102774.63
2022-12-18T05:23:21.211Z,102770.88
2022-12-18T05:25:52.141Z,102764.88
2022-12-18T05:28:18.823Z,102769.94
2022-12-18T05:30:52.840Z,102784.44
2022-12-18T05:33:20.310Z,102785.66
2022-12-18T05:35:58.344Z,102786.38
2022-12-18T05:38:26.559Z,102781.81
2022-12-18T05:40:53.637Z,102783.69
2022-12-18T05:43:21.595Z,102784.63
2022-12-18T05:45:48.885Z,102794.38
2022-12-18T05:48:15.866Z,102790.56
2022-12-18T05:50:44.894Z,102787.78
2022-12-18T05:53:11.643Z,102797.50
2022-12-18T05:55:39.718Z,102794.28
2022-12-18T05:58:07.167Z,102797.50
2022-12-18T06:00:35.778Z,102806.47
2022-12-18T06:03:02.645Z,102807.50
2022-12-18T06:05:29.232Z,102810.09
2022-12-18T06:07:55.760Z,102814.44
2022-12-18T06:10:22.278Z,102810.97
2022-12-18T06:12:48.807Z,102819.72
2022-12-18T06:15:15.330Z,102822.31
2022-12-18T06:17:43.507Z,102822.63
2022-12-18T06:20:10.434Z,102816.44
2022-12-18T06:22:37.081Z,102808.25
2022-12-18T06:25:04.102Z,102810.75
2022-12-18T06:27:31.015Z,102802.75
2022-12-18T06:29:57.559Z,102806.34
2022-12-18T06:32:24.078Z,102802.63
2022-12-18T06:34:50.662Z,102797.50
2022-12-18T06:37:17.183Z,102795.63
2022-12-18T06:39:43.887Z,102786.97
2022-12-18T06:42:10.447Z,102784.78
2022-12-18T06:44:36.974Z,102781.63
2022-12-18T06:47:03.666Z,102781.53
2022-12-18T06:49:30.743Z,102781.16
2022-12-18T06:51:57.390Z,102770.59
2022-12-18T06:54:23.905Z,102770.59
2022-12-18T06:56:50.550Z,102769.69
2022-12-18T06:59:17.728Z,102769.78
2022-12-18T07:01:44.459Z,102763.34
2022-12-18T07:04:11.092Z,102764.69
2022-12-18T07:06:37.628Z,102778.31
2022-12-18T07:09:04.200Z,102779.47
2022-12-18T07:11:30.800Z,102767.66
2022-12-18T07:13:57.360Z,102765.28
2022-12-18T07:16:25.730Z,102763.66
2022-12-18T07:18:53.644Z,102767.16
2022-12-18T07:21:20.705Z,102764.19
2022-12-18T07:23:49.044Z,102754.03
2022-12-18T07:26:17.856Z,102756.28
2022-12-18T07:28:44.835Z,102757.56
2022-12-18T07:31:15.583Z,102756.88
2022-12-18T07:33:42.684Z,102758.13
2022-12-18T07:36:10.791Z,102752.97
2022-12-18T07:38:37.848Z,102753.13
2022-12-18T07:41:06.548Z,102748.06
2022-12-18T07:43:33.841Z,102754.22
2022-12-18T07:46:00.705Z,102756.97
2022-12-18T07:48:27.395Z,102755.34
2022-12-18T07:50:53.921Z,102761.50
2022-12-18T07:53:20.530Z,102759.88
2022-12-18T07:56:18.342Z,102763.63
2022-12-18T07:58:35.415Z,102761.88
2022-12-18T08:01:06.529Z,102758.34
2022-12-18T08:03:33.317Z,102772.69
2022-12-18T08:06:04.542Z,102776.50
2022-12-18T08:08:31.530Z,102771.19
2022-12-18T08:10:58.543Z,102753.44
2022-12-18T08:13:25.136Z,102760.75
2022-12-18T08:16:05.815Z,102755.56
2022-12-18T08:18:34.103Z,102760.00
2022-12-18T08:21:10.468Z,102750.28
2022-12-18T08:23:42.571Z,102758.28
2022-12-18T08:26:10.264Z,102747.81
2022-12-18T08:28:36.864Z,102746.25
2022-12-18T08:31:03.663Z,102745.38
2022-12-18T08:33:30.511Z,102744.53
2022-12-18T08:35:57.063Z,102749.13
2022-12-18T08:38:24.227Z,102750.91
2022-12-18T08:40:50.776Z,102758.16
2022-12-18T08:43:35.761Z,102758.13
2022-12-18T08:46:02.329Z,102752.84
2022-12-18T08:48:28.913Z,102772.59
2022-12-18T08:50:59.644Z,102781.38
2022-12-18T08:53:29.258Z,102790.34
2022-12-18T08:55:59.275Z,102780.59
2022-12-18T08:58:25.809Z,102770.91
2022-12-18T09:00:52.426Z,102785.06
2022-12-18T09:03:19.727Z,102793.13
2022-12-18T09:05:49.727Z,102781.59
2022-12-18T09:08:16.425Z,102789.66
2022-12-18T09:10:44.849Z,102788.81
2022-12-18T09:13:12.854Z,102792.34
2022-12-18T09:15:50.722Z,102784.41
2022-12-18T09:18:18.567Z,102781.66
2022-12-18T09:20:45.458Z,102784.25
2022-12-18T09:23:12.496Z,102772.63
2022-12-18T09:25:39.354Z,102773.63
2022-12-18T09:28:10.623Z,102769.09
2022-12-18T09:30:45.317Z,102769.91
2022-12-18T09:33:12.033Z,102757.28
2022-12-18T09:35:39.883Z,102754.53
2022-12-18T09:38:40.761Z,102753.53
2022-12-18T09:41:24.708Z,102754.31
2022-12-18T09:43:55.334Z,102762.41
2022-12-18T09:46:29.179Z,102761.69
2022-12-18T09:48:59.219Z,102753.66
2022-12-18T09:51:31.747Z,102752.06
2022-12-18T09:54:03.000Z,102751.09
2022-12-18T09:56:33.110Z,102753.88
2022-12-18T09:59:01.309Z,102752.22
2022-12-18T10:01:38.772Z,102752.22
2022-12-18T10:04:10.008Z,102755.09
2022-12-18T10:06:55.217Z,102755.09
2022-12-18T10:09:45.957Z,102755.41
2022-12-18T10:12:18.351Z,102751.97
2022-12-18T10:15:17.059Z,102740.59
2022-12-18T10:18:07.530Z,102746.88
2022-12-18T10:20:48.459Z,102741.53
2022-12-18T10:23:23.883Z,102736.09
2022-12-18T10:25:59.083Z,102735.09
2022-12-18T10:28:25.881Z,102724.53
2022-12-18T10:30:52.606Z,102715.69
2022-12-18T10:33:24.147Z,102720.16
2022-12-18T10:35:53.592Z,102717.38
2022-12-18T10:38:20.254Z,102698.94
2022-12-18T10:40:55.616Z,102704.22
2022-12-18T10:43:32.503Z,102707.88
2022-12-18T10:46:11.065Z,102698.03
2022-12-18T10:48:54.929Z,102696.28
2022-12-18T10:51:34.764Z,102671.38
2022-12-18T10:54:23.160Z,102677.69
2022-12-18T10:56:49.872Z,102675.88
2022-12-18T10:59:18.291Z,102669.66
2022-12-18T11:01:59.008Z,102665.25
2022-12-18T11:04:27.865Z,102666.97
2022-12-18T11:06:58.498Z,102656.19
2022-12-18T11:09:30.875Z,102670.31
2022-12-18T11:12:00.231Z,102672.00
2022-12-18T11:14:46.565Z,102670.22
2022-12-18T11:17:30.160Z,102651.50
2022-12-18T11:20:01.528Z,102647.09
2022-12-18T11:22:30.570Z,102654.91
2022-12-18T11:25:36.034Z,102637.16
2022-12-18T11:28:28.983Z,102652.53
2022-12-18T11:31:10.792Z,102643.69
2022-12-18T11:33:38.668Z,102636.59
2022-12-18T11:36:06.542Z,102639.38
2022-12-18T11:38:42.100Z,102641.19
2022-12-18T11:41:46.128Z,102638.53
2022-12-18T11:44:18.059Z,102635.84
2022-12-18T11:47:05.050Z,102619.03
2022-12-18T11:49:35.762Z,102602.03
2022-12-18T11:52:22.465Z,102602.22
2022-12-18T11:54:52.728Z,102605.72
2022-12-18T11:57:43.863Z,102608.44
2022-12-18T12:00:13.908Z,102598.59
2022-12-18T12:03:06.250Z,102604.69
2022-12-18T12:06:12.430Z,102594.78
2022-12-18T12:09:20.223Z,102583.91
2022-12-18T12:11:52.857Z,102571.38
2022-12-18T12:14:22.055Z,102575.75
2022-12-18T12:16:52.904Z,102564.38
2022-12-18T12:19:37.651Z,102558.97
2022-12-18T12:22:16.168Z,102563.66
2022-12-18T12:25:04.775Z,102545.00
2022-12-18T12:27:54.437Z,102540.72
2022-12-18T12:30:45.410Z,102542.50
2022-12-18T12:33:47.267Z,102538.13
2022-12-18T12:36:28.850Z,102530.09
2022-12-18T12:38:58.908Z,102527.56
2022-12-18T12:41:51.009Z,102521.28
2022-12-18T12:44:24.490Z,102510.59
2022-12-18T12:46:52.153Z,102498.13
2022-12-18T12:49:23.242Z,102494.63
2022-12-18T12:52:07.378Z,102501.81
2022-12-18T12:54:35.584Z,102480.41
2022-12-18T12:57:37.483Z,102485.69
2022-12-18T13:00:06.423Z,102481.16
2022-12-18T13:02:57.656Z,102476.66
2022-12-18T13:05:24.480Z,102481.13
2022-12-18T13:07:58.629Z,102470.44
2022-12-18T13:10:32.435Z,102472.31
2022-12-18T13:12:58.985Z,102471.44
2022-12-18T13:15:40.651Z,102475.00
2022-12-18T13:18:10.224Z,102463.56
2022-12-18T13:20:46.578Z,102459.94
2022-12-18T13:23:52.102Z,102452.94
2022-12-18T13:26:23.371Z,102448.53
2022-12-18T13:28:57.404Z,102444.13
2022-12-18T13:31:42.569Z,102437.81
2022-12-18T13:34:27.448Z,102436.09
2022-12-18T13:36:56.329Z,102442.34
2022-12-18T13:39:30.087Z,102433.47
2022-12-18T13:42:08.898Z,102432.47
2022-12-18T13:44:42.238Z,102436.88
2022-12-18T13:47:33.886Z,102429.78
2022-12-18T13:50:01.711Z,102431.38
2022-12-18T13:52:38.122Z,102428.75
2022-12-18T13:55:07.613Z,102441.22
2022-12-18T13:57:39.725Z,102439.53
2022-12-18T14:00:29.472Z,102438.56
2022-12-18T14:02:58.503Z,102432.31
2022-12-18T14:05:35.283Z,102432.38
2022-12-18T14:08:09.644Z,102437.66
2022-12-18T14:10:49.137Z,102428.75
2022-12-18T14:13:37.262Z,102427.91
2022-12-18T14:16:05.899Z,102419.00
2022-12-18T14:18:49.627Z,102422.50
2022-12-18T14:21:22.924Z,102409.09
2022-12-18T14:23:49.692Z,102409.09
2022-12-18T14:26:30.872Z,102401.09
2022-12-18T14:28:58.498Z,102407.38
2022-12-18T14:31:27.069Z,102407.28
2022-12-18T14:33:54.288Z,102396.59
2022-12-18T14:36:30.251Z,102396.53
2022-12-18T14:38:59.031Z,102383.16
2022-12-18T14:41:26.411Z,102374.25
2022-12-18T14:43:54.950Z,102364.47
2022-12-18T14:46:36.377Z,102371.63
2022-12-18T14:49:05.613Z,102372.44
2022-12-18T14:51:34.239Z,102375.16
2022-12-18T14:54:09.169Z,102357.44
2022-12-18T14:56:37.439Z,102354.00
2022-12-18T14:59:19.241Z,102363.00
2022-12-18T15:01:59.225Z,102353.22
2022-12-18T15:04:36.116Z,102341.69
2022-12-18T15:07:16.984Z,102336.34
2022-12-18T15:09:45.885Z,102339.94
2022-12-18T15:12:43.951Z,102348.88
2022-12-18T15:15:38.483Z,102333.72
2022-12-18T15:18:13.947Z,102340.06
2022-12-18T15:20:43.162Z,102326.66
2022-12-18T15:23:21.576Z,102316.81
2022-12-18T15:25:49.762Z,102310.53
2022-12-18T15:28:40.566Z,102306.94
2022-12-18T15:31:31.544Z,102291.75
2022-12-18T15:33:59.999Z,102286.34
2022-12-18T15:36:27.145Z,102294.47
2022-12-18T15:38:56.795Z,102288.25
2022-12-18T15:41:34.138Z,102266.84
2022-12-18T15:44:03.010Z,102256.16
2022-12-18T15:46:31.762Z,102253.50
2022-12-18T15:49:02.102Z,102241.91
2022-12-18T15:51:39.355Z,102234.75
2022-12-18T15:54:12.166Z,102224.06
2022-12-18T15:56:57.049Z,102222.28
2022-12-18T15:59:24.662Z,102215.19
2022-12-18T16:01:52.374Z,102218.78
2022-12-18T16:04:21.597Z,102204.50
2022-12-18T16:07:13.854Z,102208.97
2022-12-18T16:09:35.317Z,102206.28
2022-12-18T16:12:01.886Z,102197.31
2022-12-18T16:14:30.640Z,102202.66
2022-12-18T16:16:59.743Z,102202.66
2022-12-18T16:19:26.859Z,102184.78
2022-12-18T16:21:55.643Z,102182.97
2022-12-18T16:24:24.219Z,102190.09
2022-12-18T16:26:52.488Z,102189.19
2022-12-18T16:29:20.115Z,102177.63
2022-12-18T16:31:46.655Z,102174.03
2022-12-18T16:34:23.448Z,102174.03
2022-12-18T16:36:54.288Z,102179.38
2022-12-18T16:39:21.443Z,102174.91
2022-12-18T16:41:48.032Z,102172.25
2022-12-18T16:44:15.116Z,102175.81
2022-12-18T16:46:46.342Z,102172.25
2022-12-18T16:49:14.386Z,102172.25
2022-12-18T16:51:41.336Z,102161.47
2022-12-18T16:54:10.994Z,102168.63
2022-12-18T16:56:40.103Z,102173.97
2022-12-18T16:59:06.862Z,102172.16
2022-12-18T17:01:33.760Z,102168.56
2022-12-18T17:04:03.343Z,102164.09
2022-12-18T17:06:32.118Z,102154.22
2022-12-18T17:09:03.914Z,102147.06
2022-12-18T17:11:32.356Z,102140.00
2022-12-18T17:13:59.091Z,102131.00
2022-12-18T17:16:26.620Z,102131.94
2022-12-18T17:18:53.741Z,102122.16
2022-12-18T17:21:20.292Z,102127.53
2022-12-18T17:23:46.840Z,102122.16
2022-12-18T17:26:13.651Z,102109.63
2022-12-18T17:28:41.186Z,102106.03
2022-12-18T17:31:28.149Z,102107.78
2022-12-18T17:33:55.072Z,102099.75
2022-12-18T17:36:22.250Z,102098.84
2022-12-18T17:38:53.147Z,102091.69
2022-12-18T17:41:19.739Z,102086.34
2022-12-18T17:43:54.540Z,102084.59
2022-12-18T17:46:21.492Z,102082.78
2022-12-18T17:48:48.246Z,102089.91
2022-12-18T17:51:16.437Z,102095.31
2022-12-18T17:53:43.562Z,102103.34
2022-12-18T17:56:13.532Z,102106.06
2022-12-18T17:58:40.406Z,102102.47
2022-12-18T18:01:07.746Z,102093.53
2022-12-18T18:03:37.469Z,102086.41
2022-12-18T18:06:05.171Z,102081.06
2022-12-18T18:08:34.512Z,102088.22
2022-12-18T18:11:26.967Z,102077.47
2022-12-18T18:14:02.794Z,102080.16
2022-12-18T18:16:35.595Z,102077.50
2022-12-18T18:19:04.903Z,102066.78
2022-12-18T18:21:31.975Z,102056.97
2022-12-18T18:24:03.136Z,102048.91
2022-12-18T18:26:31.997Z,102047.16
2022-12-18T18:28:59.897Z,102045.38
2022-12-18T18:31:29.624Z,102043.59
2022-12-18T18:33:56.659Z,102047.22
2022-12-18T18:36:23.835Z,102045.44
2022-12-18T18:38:51.240Z,102066.91
2022-12-18T18:41:18.206Z,102065.97
2022-12-18T18:43:45.320Z,102063.34
2022-12-18T18:46:14.398Z,102062.47
2022-12-18T18:48:43.702Z,102061.56
2022-12-18T18:51:17.768Z,102049.94
2022-12-18T18:53:48.824Z,102051.69
2022-12-18T18:56:45.580Z,102040.06
2022-12-18T18:59:04.718Z,102054.44
2022-12-18T19:01:31.378Z,102041.00
2022-12-18T19:03:58.023Z,102049.06
2022-12-18T19:06:27.623Z,102042.81
2022-12-18T19:08:56.224Z,102048.16
2022-12-18T19:11:43.474Z,102046.38
2022-12-18T19:14:12.179Z,102041.00
2022-12-18T19:16:39.055Z,102030.28
2022-12-18T19:19:05.895Z,102024.00
2022-12-18T19:21:34.228Z,102024.91
2022-12-18T19:24:02.421Z,102027.59
2022-12-18T19:26:29.135Z,102034.72
2022-12-18T19:29:03.742Z,102036.53
2022-12-18T19:31:35.212Z,102036.53
2022-12-18T19:34:02.914Z,102039.25
2022-12-18T19:36:30.731Z,102029.41
2022-12-18T19:38:59.895Z,102016.91
2022-12-18T19:41:28.991Z,102023.16
2022-12-18T19:43:55.763Z,102018.69
2022-12-18T19:46:23.358Z,102012.38
2022-12-18T19:48:50.460Z,102007.00
2022-12-18T19:51:19.858Z,101999.91
2022-12-18T19:53:46.675Z,101988.28
2022-12-18T19:56:16.230Z,101986.53
2022-12-18T19:58:43.828Z,101991.88
2022-12-18T20:01:11.090Z,101992.81
2022-12-18T20:03:40.485Z,101989.22
2022-12-18T20:06:15.780Z,101993.72
2022-12-18T20:08:42.348Z,101979.41
2022-12-18T20:11:08.867Z,101972.25
2022-12-18T20:13:35.779Z,101972.28
2022-12-18T20:16:02.714Z,101966.00
2022-12-18T20:18:29.279Z,101970.44
2022-12-18T20:20:56.425Z,101968.63
2022-12-18T20:23:25.060Z,101965.09
2022-12-18T20:25:55.448Z,101972.19
2022-12-18T20:28:23.172Z,101973.97
2022-12-18T20:30:50.029Z,101968.59
2022-12-18T20:33:16.738Z,101963.22
2022-12-18T20:35:43.247Z,101957.88
2022-12-18T20:38:10.552Z,101961.44
2022-12-18T20:40:41.496Z,101957.88
2022-12-18T20:43:11.299Z,101964.13
2022-12-18T20:45:40.500Z,101956.06
2022-12-18T20:48:09.325Z,101962.31
2022-12-18T20:50:35.866Z,101959.50
2022-12-18T20:53:02.383Z,101965.78
2022-12-18T20:55:29.000Z,101954.16
2022-12-18T20:57:55.569Z,101954.19
2022-12-18T21:00:22.493Z,101956.88
2022-12-18T21:02:49.096Z,101939.91
2022-12-18T21:05:15.772Z,101938.09
2022-12-18T21:07:42.307Z,101938.06
2022-12-18T21:10:09.266Z,101927.31
2022-12-18T21:12:48.154Z,101948.66
2022-12-18T21:15:28.803Z,101937.16
2022-12-18T21:17:55.640Z,101934.47
2022-12-18T21:20:22.419Z,101938.00
2022-12-18T21:22:49.492Z,101925.50
2022-12-18T21:25:16.099Z,101916.53
2022-12-18T21:27:42.656Z,101921.03
2022-12-18T21:30:09.506Z,101901.41
2022-12-18T21:32:36.195Z,101905.84
2022-12-18T21:35:02.744Z,101901.41
2022-12-18T21:37:29.260Z,101902.28
2022-12-18T21:39:55.799Z,101892.47
2022-12-18T21:42:40.832Z,101898.72
2022-12-18T21:45:07.790Z,101889.75
2022-12-18T21:47:34.350Z,101898.63
2022-12-18T21:50:00.880Z,101889.72
2022-12-18T21:52:31.440Z,101893.25
2022-12-18T21:55:09.005Z,101896.84
2022-12-18T21:57:38.072Z,101895.03
2022-12-18T22:00:05.980Z,101894.13
2022-12-18T22:02:32.658Z,101903.06
2022-12-18T22:04:59.339Z,101906.63
2022-12-18T22:07:26.620Z,101895.00
2022-12-18T22:09:53.167Z,101893.19
2022-12-18T22:12:35.303Z,101887.78
2022-12-18T22:15:04.319Z,101878.06
2022-12-18T22:17:30.963Z,101893.16
2022-12-18T22:19:57.519Z,101870.00
2022-12-18T22:22:24.192Z,101873.56
2022-12-18T22:24:50.756Z,101861.06
2022-12-18T22:27:17.279Z,101864.63
2022-12-18T22:30:02.509Z,101845.03
2022-12-18T22:32:31.211Z,101852.13
2022-12-18T22:35:06.244Z,101844.16
2022-12-18T22:37:33.826Z,101837.91
2022-12-18T22:40:02.988Z,101841.50
2022-12-18T22:42:31.018Z,101845.06
2022-12-18T22:44:57.568Z,101843.25
2022-12-18T22:47:29.262Z,101848.59
2022-12-18T22:49:56.494Z,101841.41
2022-12-18T22:52:24.744Z,101834.28
2022-12-18T22:54:53.579Z,101829.81
2022-12-18T22:57:21.640Z,101825.31
2022-12-18T22:59:49.143Z,101825.38
2022-12-18T23:02:15.844Z,101813.75
2022-12-18T23:04:42.461Z,101807.44
2022-12-18T23:07:09.045Z,101800.34
2022-12-18T23:09:37.795Z,101798.56
2022-12-18T23:12:04.661Z,101790.53
2022-12-18T23:14:31.851Z,101778.91
2022-12-18T23:16:58.406Z,101783.41
2022-12-18T23:19:25.333Z,101768.25
2022-12-18T23:21:51.915Z,101768.25
2022-12-18T23:24:21.065Z,101767.31
2022-12-18T23:26:47.578Z,101770.00
2022-12-18T23:29:14.149Z,101771.75
2022-12-18T23:31:40.772Z,101761.03
2022-12-18T23:34:07.645Z,101757.53
2022-12-18T23:36:45.266Z,101761.03
2022-12-18T23:39:19.263Z,101768.19
2022-12-18T23:41:57.014Z,101761.94
2022-12-18T23:44:23.593Z,101757.50
2022-12-18T23:46:50.380Z,101759.28
2022-12-18T23:49:16.991Z,101753.94
2022-12-18T23:51:43.632Z,101750.31
2022-12-18T23:54:10.631Z,101748.53
2022-12-18T23:56:37.226Z,101740.53
2022-12-18T23:59:03.780Z,101723.63
